Time;durP1;ratioP1;P1;durP2;ratioP2;P2;SDS_P1;SDS_P2;PMS_P1;PMS_P2;Temp;Humidity;BMP_temperature;BMP_pressure;BME280_temperature;BME280_humidity;BME280_pressure;Samples;Min_cycle;Max_cycle;Signal;HPM_P1;HPM_P2
2021/03/30 04:05:01;;;;;;;3.10;2.20;;;7.00;44.30;;;;;;6280810;22;20156;-91
2021/03/30 04:07:33;;;;;;;4.85;3.30;;;6.90;44.50;;;;;;6253246;22;20149;-89
2021/03/30 04:10:02;;;;;;;5.20;2.80;;;6.80;44.40;;;;;;6253286;22;20149;-91
2021/03/30 04:12:31;;;;;;;4.72;3.50;;;6.80;44.00;;;;;;6253701;22;20590;-90
2021/03/30 04:14:58;;;;;;;7.20;2.65;;;6.30;43.60;;;;;;6253152;22;20214;-91
2021/03/30 04:17:23;;;;;;;9.95;3.17;;;6.20;43.40;;;;;;6253153;22;20145;-90
2021/03/30 04:19:49;;;;;;;4.17;3.10;;;6.90;44.20;;;;;;6254150;22;20141;-90
2021/03/30 04:22:16;;;;;;;3.30;2.50;;;6.60;43.60;;;;;;6253679;22;20625;-91
2021/03/30 04:24:43;;;;;;;7.90;3.10;;;7.40;44.80;;;;;;6253541;22;20384;-92
2021/03/30 04:27:10;;;;;;;2.53;2.20;;;7.00;44.60;;;;;;6254140;22;20220;-91
2021/03/30 04:29:37;;;;;;;4.50;4.10;;;7.00;43.90;;;;;;6253878;22;20133;-92
2021/03/30 04:32:03;;;;;;;4.05;2.72;;;7.00;44.50;;;;;;6253831;22;20467;-92
2021/03/30 04:34:37;;;;;;;4.15;3.20;;;6.80;44.30;;;;;;6254900;22;20164;-91
2021/03/30 04:37:04;;;;;;;4.60;3.20;;;7.30;44.60;;;;;;6253511;22;20164;-92
2021/03/30 04:39:29;;;;;;;3.67;3.35;;;6.80;43.90;;;;;;6253882;22;20141;-91
2021/03/30 04:42:26;;;;;;;3.30;2.90;;;7.30;44.50;;;;;;6253782;22;20184;-91
2021/03/30 04:44:52;;;;;;;3.80;2.42;;;7.00;44.60;;;;;;6256316;22;20152;-91
2021/03/30 04:47:18;;;;;;;3.83;3.07;;;6.30;43.90;;;;;;6256128;22;20145;-91
2021/03/30 04:50:08;;;;;;;3.00;2.80;;;6.10;44.10;;;;;;6255962;22;20486;-91
2021/03/30 04:52:35;;;;;;;3.20;2.63;;;6.40;45.10;;;;;;6255201;22;20204;-91
2021/03/30 04:55:16;;;;;;;6.40;2.95;;;6.60;45.10;;;;;;6256550;22;20148;-91
2021/03/30 04:57:55;;;;;;;4.50;3.30;;;6.40;44.40;;;;;;6254708;22;20163;-89
2021/03/30 05:00:21;;;;;;;4.30;2.95;;;6.70;44.90;;;;;;6254327;22;20152;-89
2021/03/30 05:02:47;;;;;;;4.18;3.65;;;6.70;45.00;;;;;;6255390;22;20280;-89
2021/03/30 05:05:16;;;;;;;3.47;2.40;;;6.50;44.90;;;;;;6253794;22;20149;-89
2021/03/30 05:07:42;;;;;;;8.48;3.30;;;6.40;44.90;;;;;;6254171;22;20153;-91
2021/03/30 05:10:43;;;;;;;5.47;3.03;;;6.60;44.80;;;;;;6255355;22;20456;-90
2021/03/30 05:13:08;;;;;;;4.25;3.22;;;6.40;44.70;;;;;;6252735;22;20236;-90
2021/03/30 05:15:48;;;;;;;4.50;3.97;;;6.40;44.70;;;;;;6254687;22;20149;-90
2021/03/30 05:18:14;;;;;;;3.03;2.63;;;6.70;45.00;;;;;;6253956;22;20157;-89
2021/03/30 05:20:42;;;;;;;3.30;3.00;;;6.60;44.80;;;;;;6254330;22;20145;-89
2021/03/30 05:23:08;;;;;;;6.63;4.10;;;6.70;45.10;;;;;;6254632;22;20176;-89
2021/03/30 05:25:54;;;;;;;5.80;3.77;;;6.40;44.90;;;;;;6253869;22;20572;-90
2021/03/30 05:28:20;;;;;;;5.90;3.60;;;6.20;44.70;;;;;;6253940;22;20228;-90
2021/03/30 05:31:25;;;;;;;5.03;3.67;;;6.40;45.20;;;;;;6253338;22;20168;-90
2021/03/30 05:33:51;;;;;;;4.95;3.75;;;6.30;45.20;;;;;;6252981;22;20235;-90
2021/03/30 05:36:22;;;;;;;7.40;3.63;;;6.60;45.70;;;;;;6253617;22;20172;-89
2021/03/30 05:38:48;;;;;;;5.80;3.83;;;6.60;45.40;;;;;;6255409;22;20150;-90
2021/03/30 05:41:33;;;;;;;4.13;3.07;;;6.40;45.00;;;;;;6254027;22;20504;-90
2021/03/30 05:44:00;;;;;;;3.60;3.00;;;6.70;45.00;;;;;;6253691;22;20137;-90
2021/03/30 05:46:33;;;;;;;3.85;3.35;;;6.80;45.20;;;;;;6254677;22;20659;-90
2021/03/30 05:48:59;;;;;;;3.78;2.70;;;6.70;45.00;;;;;;6282663;22;20466;-90
2021/03/30 05:51:30;;;;;;;6.43;3.92;;;6.60;45.10;;;;;;6254290;22;20163;-90
2021/03/30 05:53:58;;;;;;;4.57;3.80;;;6.60;45.00;;;;;;6254795;22;20142;-91
2021/03/30 05:56:42;;;;;;;4.85;3.42;;;6.80;45.10;;;;;;6254387;22;20196;-91
2021/03/30 05:59:09;;;;;;;5.70;4.43;;;6.80;44.80;;;;;;6254311;22;20137;-91
2021/03/30 06:01:44;;;;;;;4.90;4.50;;;6.20;44.30;;;;;;6254287;22;20183;-90
2021/03/30 06:04:10;;;;;;;4.78;3.78;;;7.30;45.00;;;;;;6254632;22;20192;-90
2021/03/30 06:06:37;;;;;;;5.25;4.60;;;7.00;44.20;;;;;;6253915;22;20149;-90
2021/03/30 06:13:00;;;;;;;5.50;5.00;;;7.30;44.30;;;;;;6281435;22;20163;-89
2021/03/30 06:15:28;;;;;;;4.63;3.97;;;7.10;44.20;;;;;;6254034;22;20141;-90
2021/03/30 06:17:54;;;;;;;4.85;3.80;;;7.10;44.70;;;;;;6253865;22;20160;-90
2021/03/30 06:20:40;;;;;;;5.72;4.07;;;7.60;45.50;;;;;;6257825;22;20212;-93
2021/03/30 06:23:07;;;;;;;4.38;3.47;;;8.40;44.70;;;;;;6255306;22;20188;-94
2021/03/30 06:29:41;;;;;;;4.32;3.65;;;9.50;40.10;;;;;;6281796;22;20456;-93
2021/03/30 06:32:08;;;;;;;5.07;3.83;;;11.00;36.40;;;;;;6088679;23;20164;-91
2021/03/30 06:34:36;;;;;;;5.57;4.03;;;11.60;34.10;;;;;;6112596;23;20625;-91
2021/03/30 06:37:36;;;;;;;4.83;4.30;;;12.00;32.20;;;;;;6107380;23;20440;-91
2021/03/30 06:47:34;;;;;;;6.00;5.50;;;13.60;28.80;;;;;;6282682;22;20339;-91
2021/03/30 06:50:02;;;;;;;4.97;4.57;;;14.10;28.60;;;;;;6256021;22;20368;-91
2021/03/30 06:52:46;;;;;;;4.97;4.57;;;14.30;28.00;;;;;;6257805;22;20403;-93
2021/03/30 06:55:14;;;;;;;4.87;4.40;;;14.60;27.60;;;;;;6260455;22;20372;-92
2021/03/30 07:01:02;;;;;;;4.27;3.87;;;14.80;26.60;;;;;;6283665;22;20339;-93
2021/03/30 07:06:58;;;;;;;6.90;5.33;;;14.90;26.80;;;;;;6281258;22;20403;-91
2021/03/30 07:09:40;;;;;;;6.72;4.55;;;14.50;27.30;;;;;;6255235;22;20390;-93
2021/03/30 07:12:07;;;;;;;5.00;4.60;;;14.40;27.50;;;;;;6255268;22;20148;-92
2021/03/30 07:18:28;;;;;;;6.77;5.93;;;14.70;27.60;;;;;;6301659;22;20398;-96
2021/03/30 07:21:23;;;;;;;6.83;4.93;;;14.70;27.90;;;;;;6260879;22;20384;-92
2021/03/30 07:23:57;;;;;;;5.53;5.07;;;14.90;28.30;;;;;;6260013;22;20387;-93
2021/03/30 07:26:51;;;;;;;5.87;5.37;;;14.50;28.20;;;;;;6257044;22;20388;-92
2021/03/30 07:29:22;;;;;;;8.70;5.63;;;14.40;28.20;;;;;;6255260;22;20382;-92
2021/03/30 07:32:40;;;;;;;5.80;5.20;;;13.90;28.70;;;;;;6254697;22;20775;-93
2021/03/30 07:35:13;;;;;;;6.37;5.27;;;13.70;29.40;;;;;;6254444;22;20382;-89
2021/03/30 07:37:41;;;;;;;7.43;5.63;;;13.50;29.80;;;;;;6253452;22;20479;-89
2021/03/30 07:40:10;;;;;;;6.07;5.00;;;13.50;30.10;;;;;;6252817;22;20383;-89
2021/03/30 07:42:41;;;;;;;11.50;6.50;;;13.50;29.90;;;;;;6252916;22;20513;-90
2021/03/30 07:45:22;;;;;;;5.60;5.10;;;13.60;30.00;;;;;;6256765;22;20372;-92
2021/03/30 07:47:49;;;;;;;6.90;5.43;;;13.60;30.40;;;;;;6260202;22;20395;-92
2021/03/30 07:50:22;;;;;;;8.37;6.73;;;13.80;31.20;;;;;;6253323;22;20455;-91
2021/03/30 07:52:51;;;;;;;10.43;6.70;;;13.40;31.80;;;;;;6253441;22;20397;-91
2021/03/30 07:55:18;;;;;;;6.77;6.07;;;13.50;32.00;;;;;;6252994;22;20452;-93
2021/03/30 07:58:09;;;;;;;7.53;5.83;;;13.50;32.00;;;;;;6254725;22;20399;-93
2021/03/30 08:00:35;;;;;;;8.00;6.80;;;13.80;32.00;;;;;;6253857;22;20694;-94
2021/03/30 08:03:33;;;;;;;7.07;6.47;;;13.80;32.00;;;;;;6254233;22;20412;-92
2021/03/30 08:12:43;;;;;;;5.90;5.30;;;14.30;30.70;;;;;;6281051;22;20395;-92
2021/03/30 08:16:00;;;;;;;7.10;6.40;;;14.70;30.90;;;;;;6254699;22;20466;-92
2021/03/30 08:18:31;;;;;;;6.60;5.93;;;14.80;30.40;;;;;;6256223;22;20379;-93
2021/03/30 08:21:33;;;;;;;8.63;6.00;;;14.70;30.00;;;;;;6254892;22;20830;-94
2021/03/30 08:24:01;;;;;;;6.30;5.17;;;14.70;30.20;;;;;;6255342;22;20399;-95
2021/03/30 08:26:55;;;;;;;6.60;5.87;;;15.00;30.00;;;;;;6255225;22;20736;-95
2021/03/30 08:29:38;;;;;;;10.27;6.67;;;15.30;29.90;;;;;;6253710;22;20472;-95
2021/03/30 08:32:05;;;;;;;8.93;6.67;;;15.40;29.40;;;;;;6256502;22;20387;-94
2021/03/30 08:34:46;;;;;;;8.60;5.73;;;15.50;29.20;;;;;;6255708;22;20451;-94
2021/03/30 08:37:17;;;;;;;8.20;5.87;;;15.70;29.40;;;;;;6260758;22;20790;-94
2021/03/30 08:39:43;;;;;;;6.22;5.63;;;16.30;30.00;;;;;;6256387;22;20387;-92
2021/03/30 08:42:20;;;;;;;6.60;5.53;;;16.10;29.10;;;;;;6254488;22;20380;-90
2021/03/30 08:44:56;;;;;;;7.15;5.88;;;16.50;28.90;;;;;;6252991;22;20378;-91
2021/03/30 08:47:43;;;;;;;8.17;6.80;;;16.60;28.40;;;;;;6253972;22;20153;-91
2021/03/30 08:50:23;;;;;;;7.10;6.40;;;16.80;28.50;;;;;;6254249;22;20414;-90
2021/03/30 08:52:50;;;;;;;7.93;6.57;;;16.90;28.10;;;;;;6253522;22;20466;-89
2021/03/30 08:55:29;;;;;;;8.23;6.00;;;17.00;27.40;;;;;;6253340;22;20434;-90
2021/03/30 08:57:59;;;;;;;6.33;5.73;;;17.00;27.50;;;;;;6253345;22;20434;-89
2021/03/30 09:00:25;;;;;;;6.93;6.27;;;17.10;27.40;;;;;;6253853;22;20383;-89
2021/03/30 09:03:05;;;;;;;7.90;6.00;;;17.40;27.80;;;;;;6253495;22;20427;-89
2021/03/30 09:05:41;;;;;;;7.30;5.20;;;17.50;27.70;;;;;;6268235;22;20513;-89
2021/03/30 09:08:10;;;;;;;7.13;6.40;;;17.30;27.80;;;;;;6284081;22;20849;-89
2021/03/30 09:10:37;;;;;;;6.87;6.17;;;17.70;27.80;;;;;;6285561;22;20755;-90
2021/03/30 09:13:14;;;;;;;6.90;6.30;;;17.70;26.70;;;;;;6283460;22;20889;-90
2021/03/30 09:15:41;;;;;;;9.30;6.30;;;17.70;26.70;;;;;;6289471;22;20378;-91
2021/03/30 09:18:28;;;;;;;6.00;5.37;;;17.60;25.00;;;;;;6291583;22;20469;-94
2021/03/30 09:21:09;;;;;;;5.13;4.30;;;17.90;26.30;;;;;;6289258;22;20374;-92
2021/03/30 09:23:38;;;;;;;6.00;5.40;;;17.70;26.60;;;;;;6288338;22;20899;-92
2021/03/30 09:26:12;;;;;;;6.30;5.70;;;18.20;26.50;;;;;;6289147;22;20825;-93
2021/03/30 09:28:54;;;;;;;5.30;4.80;;;18.30;25.50;;;;;;6287235;22;20386;-93
2021/03/30 09:31:20;;;;;;;5.13;4.63;;;18.30;23.60;;;;;;6292451;22;20370;-96
2021/03/30 09:34:07;;;;;;;4.53;4.13;;;18.80;24.80;;;;;;6288544;22;20379;-96
2021/03/30 09:36:44;;;;;;;5.47;4.97;;;18.90;23.80;;;;;;6285516;22;20371;-94
2021/03/30 09:39:18;;;;;;;5.23;4.47;;;18.90;23.80;;;;;;6311396;22;20809;-90
2021/03/30 09:41:45;;;;;;;5.80;5.20;;;18.70;23.70;;;;;;6290686;22;20426;-93
2021/03/30 09:44:12;;;;;;;4.70;4.23;;;18.90;23.40;;;;;;6296538;22;20375;-93
2021/03/30 09:46:39;;;;;;;6.33;4.93;;;18.90;23.10;;;;;;6286643;22;20443;-95
2021/03/30 09:49:27;;;;;;;6.13;5.53;;;19.20;24.30;;;;;;6286603;22;20434;-92
2021/03/30 09:51:54;;;;;;;7.30;6.60;;;19.40;24.10;;;;;;6285683;22;20346;-91
2021/03/30 09:54:32;;;;;;;7.13;4.83;;;19.50;23.70;;;;;;6285419;22;20374;-89
2021/03/30 09:57:00;;;;;;;7.03;6.00;;;19.70;23.90;;;;;;6285023;22;20366;-91
2021/03/30 09:59:44;;;;;;;5.73;5.10;;;20.30;23.70;;;;;;6284899;22;20395;-92
2021/03/30 10:02:10;;;;;;;5.23;4.73;;;20.00;22.90;;;;;;6291875;22;20441;-94
2021/03/30 10:04:36;;;;;;;6.40;4.37;;;20.20;22.90;;;;;;6293173;22;20869;-90
2021/03/30 10:07:19;;;;;;;7.47;5.10;;;20.50;23.20;;;;;;6301303;22;20390;-94
2021/03/30 10:10:05;;;;;;;7.43;5.53;;;20.70;23.00;;;;;;6294200;22;20152;-94
2021/03/30 10:13:14;;;;;;;4.77;4.40;;;20.30;22.20;;;;;;6296031;22;20464;-94
2021/03/30 10:15:40;;;;;;;4.37;3.97;;;20.90;22.00;;;;;;6299134;22;20433;-93
2021/03/30 10:18:22;;;;;;;4.33;3.93;;;21.20;22.60;;;;;;6299449;22;20379;-92
2021/03/30 10:20:59;;;;;;;6.10;5.40;;;21.40;22.10;;;;;;6295865;22;20453;-90
2021/03/30 10:23:34;;;;;;;6.63;4.03;;;21.60;21.60;;;;;;6290000;22;20441;-90
2021/03/30 10:26:17;;;;;;;4.33;3.87;;;21.80;21.70;;;;;;6313672;22;20383;-93
2021/03/30 10:28:55;;;;;;;5.90;4.60;;;22.00;21.30;;;;;;6293074;22;20426;-90
2021/03/30 10:31:36;;;;;;;6.83;4.20;;;22.00;21.20;;;;;;6288142;22;20363;-91
2021/03/30 10:34:30;;;;;;;5.60;4.33;;;22.30;20.80;;;;;;6291138;22;20375;-92
2021/03/30 10:36:58;;;;;;;5.63;3.40;;;21.90;20.30;;;;;;6293315;22;20378;-91
2021/03/30 10:39:44;;;;;;;5.10;3.53;;;22.30;20.40;;;;;;6296161;22;20366;-93
2021/03/30 10:42:12;;;;;;;4.10;3.80;;;22.70;20.40;;;;;;6290244;22;20401;-91
2021/03/30 10:44:41;;;;;;;3.20;3.00;;;22.40;19.90;;;;;;6289891;22;20367;-91
2021/03/30 10:47:15;;;;;;;5.60;4.23;;;22.90;19.80;;;;;;6291491;22;20353;-93
2021/03/30 10:49:41;;;;;;;4.57;3.23;;;22.70;19.40;;;;;;6292891;22;20344;-92
2021/03/30 10:52:14;;;;;;;3.60;3.23;;;23.20;19.90;;;;;;6287575;22;20357;-93
2021/03/30 10:54:40;;;;;;;4.30;3.83;;;23.10;19.10;;;;;;6286024;22;20879;-90
2021/03/30 10:57:09;;;;;;;8.23;3.73;;;23.40;19.20;;;;;;6284111;22;20391;-90
2021/03/30 10:59:35;;;;;;;6.55;3.70;;;23.60;19.00;;;;;;6282236;22;20377;-90
2021/03/30 11:02:02;;;;;;;5.60;3.57;;;23.80;18.70;;;;;;6285354;22;20546;-91
2021/03/30 11:04:30;;;;;;;5.67;3.57;;;23.90;18.80;;;;;;6284985;22;20205;-92
2021/03/30 11:06:56;;;;;;;4.30;3.45;;;24.00;18.50;;;;;;6289037;22;20398;-93
2021/03/30 11:09:24;;;;;;;4.40;4.00;;;24.20;18.30;;;;;;6288162;22;20145;-91
2021/03/30 11:11:50;;;;;;;6.30;3.37;;;24.30;17.80;;;;;;6288041;22;20148;-92
2021/03/30 11:14:17;;;;;;;4.37;3.33;;;24.40;17.70;;;;;;6286550;22;20688;-93
2021/03/30 11:16:42;;;;;;;5.87;4.90;;;24.50;17.80;;;;;;6288862;22;20152;-93
2021/03/30 11:19:14;;;;;;;3.93;3.30;;;24.30;16.50;;;;;;6296959;22;20404;-93
2021/03/30 11:21:40;;;;;;;6.07;4.03;;;24.60;16.90;;;;;;6289293;22;20215;-93
2021/03/30 11:24:22;;;;;;;5.13;3.90;;;24.30;17.10;;;;;;6288658;22;20349;-93
2021/03/30 11:26:51;;;;;;;4.10;3.70;;;24.80;16.00;;;;;;6289553;22;20147;-93
2021/03/30 11:34:43;;;;;;;5.90;3.83;;;25.60;15.60;;;;;;6317616;22;20369;-94
2021/03/30 11:39:38;;;;;;;4.73;3.27;;;25.10;14.70;;;;;;6325928;22;20407;-94
2021/03/30 11:42:05;;;;;;;4.27;3.30;;;24.60;13.60;;;;;;6291302;22;20461;-93
2021/03/30 11:44:32;;;;;;;3.57;3.27;;;25.20;14.50;;;;;;6293499;22;20396;-93
2021/03/30 11:47:00;;;;;;;4.33;3.90;;;25.30;14.60;;;;;;6288731;22;20341;-91
2021/03/30 11:49:27;;;;;;;3.80;3.40;;;25.40;13.10;;;;;;6283295;22;20382;-92
2021/03/30 11:51:54;;;;;;;3.73;3.33;;;25.50;13.50;;;;;;6285324;22;20387;-90
2021/03/30 11:57:44;;;;;;;4.70;3.10;;;25.80;12.10;;;;;;6326314;22;20322;-93
2021/03/30 12:03:35;;;;;;;5.37;3.70;;;25.60;12.00;;;;;;6325346;22;20414;-94
2021/03/30 12:06:01;;;;;;;3.30;3.00;;;26.00;11.50;;;;;;6272395;22;20435;-95
2021/03/30 12:11:49;;;;;;;3.10;2.83;;;25.90;11.90;;;;;;6286578;22;20363;-95
2021/03/30 12:17:40;;;;;;;3.70;3.40;;;26.00;10.70;;;;;;6279980;22;20519;-90
2021/03/30 12:20:07;;;;;;;3.63;3.33;;;26.60;10.90;;;;;;6254854;22;20371;-90
2021/03/30 12:22:34;;;;;;;4.20;3.80;;;26.70;11.00;;;;;;6254819;22;20416;-89
2021/03/30 12:25:02;;;;;;;4.20;3.83;;;26.70;10.80;;;;;;6255657;22;20372;-89
2021/03/30 12:27:29;;;;;;;3.60;3.30;;;26.70;10.90;;;;;;6255043;22;20705;-89
2021/03/30 12:29:54;;;;;;;3.77;3.47;;;26.80;10.30;;;;;;6255631;22;20842;-90
2021/03/30 12:32:20;;;;;;;4.13;3.63;;;26.90;10.40;;;;;;6256522;22;20394;-91
2021/03/30 12:34:46;;;;;;;3.57;3.23;;;27.00;9.80;;;;;;6255915;22;20145;-91
2021/03/30 12:37:44;;;;;;;4.20;3.33;;;26.90;9.90;;;;;;6259467;22;20382;-93
2021/03/30 12:40:10;;;;;;;4.00;3.70;;;26.90;9.40;;;;;;6266555;22;20157;-93
2021/03/30 12:42:40;;;;;;;3.73;3.43;;;26.70;9.70;;;;;;6266208;22;20411;-93
2021/03/30 12:46:01;;;;;;;3.80;3.43;;;26.90;9.80;;;;;;6264799;22;20364;-93
2021/03/30 12:48:27;;;;;;;5.13;4.10;;;27.00;10.10;;;;;;6260721;22;20364;-92
2021/03/30 12:50:54;;;;;;;5.33;3.80;;;27.20;10.00;;;;;;6261128;22;20366;-92
2021/03/30 12:53:20;;;;;;;4.67;4.27;;;27.30;10.00;;;;;;6262192;22;20235;-91
2021/03/30 12:59:48;;;;;;;4.13;3.70;;;27.50;11.00;;;;;;6287424;22;20708;-93
2021/03/30 13:02:14;;;;;;;4.22;3.88;;;27.40;11.40;;;;;;6260005;22;20394;-90
2021/03/30 13:08:09;;;;;;;4.10;3.77;;;27.50;10.90;;;;;;6315733;22;20388;-94
2021/03/30 13:10:35;;;;;;;4.37;3.97;;;27.50;11.50;;;;;;6286449;22;20936;-93
2021/03/30 13:13:00;;;;;;;4.87;4.10;;;27.60;11.50;;;;;;6288032;22;20154;-91
2021/03/30 13:15:46;;;;;;;4.27;3.53;;;27.70;11.30;;;;;;6286622;22;20798;-91
2021/03/30 13:18:12;;;;;;;4.37;4.07;;;27.70;11.60;;;;;;6286403;22;20232;-92
2021/03/30 13:20:56;;;;;;;5.17;4.67;;;27.70;11.20;;;;;;6289133;22;20383;-92
2021/03/30 13:23:22;;;;;;;4.63;4.03;;;27.70;11.20;;;;;;6288025;22;20180;-92
2021/03/30 13:26:26;;;;;;;4.37;4.00;;;27.70;10.30;;;;;;6288929;22;20338;-91
2021/03/30 13:28:51;;;;;;;4.00;3.60;;;27.80;10.80;;;;;;6286597;22;20150;-92
2021/03/30 13:31:17;;;;;;;4.03;3.63;;;27.80;10.40;;;;;;6294022;22;20363;-92
2021/03/30 13:37:30;;;;;;;5.63;3.93;;;28.00;10.70;;;;;;6320784;22;20240;-93
2021/03/30 13:43:32;;;;;;;5.37;3.20;;;28.30;10.30;;;;;;6323033;22;20424;-91
2021/03/30 13:45:58;;;;;;;3.50;3.20;;;28.50;9.80;;;;;;6286624;22;20368;-91
2021/03/30 13:49:09;;;;;;;3.90;3.50;;;28.30;10.60;;;;;;6290894;22;20377;-92
2021/03/30 13:51:35;;;;;;;5.33;4.20;;;28.50;9.40;;;;;;6287919;22;20202;-89
2021/03/30 13:54:25;;;;;;;3.13;2.93;;;28.50;9.00;;;;;;6290476;22;20434;-94
2021/03/30 13:56:56;;;;;;;3.83;3.53;;;28.60;9.70;;;;;;6295106;22;20149;-94
2021/03/30 13:59:23;;;;;;;4.53;4.13;;;28.80;9.60;;;;;;6298518;22;20359;-92
2021/03/30 14:02:27;;;;;;;3.53;3.23;;;28.70;9.70;;;;;;6305957;22;20474;-93
2021/03/30 14:13:57;;;;;;;4.50;3.60;;;28.90;9.50;;;;;;6296435;22;20436;-89
2021/03/30 14:16:26;;;;;;;4.20;3.80;;;28.90;8.70;;;;;;6263087;22;20386;-93
2021/03/30 14:19:19;;;;;;;3.80;3.30;;;28.90;8.80;;;;;;6265139;22;20393;-88
2021/03/30 14:21:49;;;;;;;4.67;3.67;;;28.90;9.20;;;;;;6264291;22;20856;-94
2021/03/30 14:27:26;;;;;;;3.93;3.57;;;28.50;10.20;;;;;;6251095;22;20384;-93
2021/03/30 14:30:04;;;;;;;5.80;4.23;;;28.50;10.00;;;;;;6261420;22;20384;-93
2021/03/30 14:42:23;;;;;;;8.03;4.20;;;28.30;10.60;;;;;;6132047;22;20437;-94
2021/03/30 14:54:18;;;;;;;6.90;4.60;;;28.00;9.20;;;;;;6282814;22;20400;-91
2021/03/30 14:56:53;;;;;;;4.87;4.03;;;28.00;9.50;;;;;;6255538;22;20385;-93
2021/03/30 14:59:30;;;;;;;5.10;4.50;;;27.90;9.30;;;;;;6255847;22;20586;-92
2021/03/30 15:04:52;;;;;;;6.33;4.10;;;27.90;9.60;;;;;;6283444;22;20372;-91
2021/03/30 15:08:09;;;;;;;5.20;4.67;;;27.80;10.10;;;;;;6256279;22;20373;-92
2021/03/30 15:10:35;;;;;;;8.47;4.00;;;27.80;10.00;;;;;;6256171;22;20180;-90
2021/03/30 15:13:01;;;;;;;4.60;4.20;;;27.80;10.60;;;;;;6257310;22;20423;-90
2021/03/30 15:15:55;;;;;;;6.80;4.60;;;27.90;10.30;;;;;;6255353;22;20160;-89
2021/03/30 15:18:20;;;;;;;5.72;4.65;;;27.70;10.90;;;;;;6252710;22;20390;-91
2021/03/30 15:21:05;;;;;;;5.80;3.80;;;27.70;11.00;;;;;;6254410;22;20153;-90
2021/03/30 15:23:30;;;;;;;4.10;3.80;;;27.70;11.70;;;;;;6253630;22;20211;-91
2021/03/30 15:25:58;;;;;;;5.93;4.17;;;27.70;11.50;;;;;;6254537;22;20364;-90
2021/03/30 15:28:24;;;;;;;6.63;5.43;;;27.70;11.60;;;;;;6253159;22;20229;-91
2021/03/30 15:30:56;;;;;;;5.73;4.90;;;27.60;10.90;;;;;;6253871;22;20376;-90
2021/03/30 15:33:23;;;;;;;4.87;4.30;;;27.60;11.40;;;;;;6280366;22;20913;-90
2021/03/30 15:35:52;;;;;;;6.23;4.60;;;27.60;11.20;;;;;;6253653;22;20355;-91
2021/03/30 15:38:18;;;;;;;7.70;5.70;;;27.50;11.40;;;;;;6253464;22;20360;-91
2021/03/30 15:41:00;;;;;;;5.73;5.10;;;27.50;11.30;;;;;;6256740;22;20407;-92
2021/03/30 15:43:25;;;;;;;7.30;5.60;;;27.50;11.50;;;;;;6258431;22;20420;-91
2021/03/30 15:46:33;;;;;;;5.20;4.67;;;27.30;11.00;;;;;;6257764;22;20445;-92
2021/03/30 15:49:00;;;;;;;5.00;4.60;;;27.10;11.20;;;;;;6253637;22;20175;-91
2021/03/30 15:51:31;;;;;;;5.25;4.75;;;27.20;11.30;;;;;;6253845;22;20365;-92
2021/03/30 15:53:58;;;;;;;5.27;4.40;;;27.10;11.30;;;;;;6256712;22;20140;-92
2021/03/30 15:59:48;;;;;;;5.50;4.97;;;27.00;11.40;;;;;;6283847;22;20760;-91
2021/03/30 16:02:15;;;;;;;6.77;4.27;;;26.90;11.80;;;;;;6254562;22;20417;-91
2021/03/30 16:11:22;;;;;;;4.37;3.97;;;26.70;11.50;;;;;;6281311;22;20360;-91
2021/03/30 16:13:47;;;;;;;4.17;3.80;;;26.60;12.00;;;;;;6257599;22;20489;-90
2021/03/30 16:16:14;;;;;;;4.77;3.77;;;26.60;11.70;;;;;;6253440;22;20461;-89
2021/03/30 16:18:40;;;;;;;3.83;3.30;;;26.50;11.90;;;;;;6254551;22;20572;-91
2021/03/30 16:21:46;;;;;;;5.37;4.20;;;26.60;12.10;;;;;;6254078;22;20445;-89
2021/03/30 16:28:07;;;;;;;4.50;3.60;;;26.60;11.50;;;;;;6203195;22;20214;-91
2021/03/30 16:30:33;;;;;;;4.53;3.40;;;26.70;11.30;;;;;;6253794;22;20365;-89
2021/03/30 16:33:27;;;;;;;4.87;3.60;;;26.70;11.30;;;;;;6253547;22;20458;-89
2021/03/30 16:35:53;;;;;;;5.30;3.87;;;26.60;11.00;;;;;;6253328;22;20490;-89
2021/03/30 16:38:27;;;;;;;4.93;3.87;;;26.60;11.20;;;;;;6253512;22;20343;-91
2021/03/30 16:40:53;;;;;;;3.30;3.00;;;26.50;11.10;;;;;;6253317;22;20152;-91
2021/03/30 16:44:02;;;;;;;4.00;3.60;;;26.50;10.90;;;;;;6253535;22;20455;-91
2021/03/30 16:46:29;;;;;;;3.83;3.37;;;26.50;10.80;;;;;;6251224;22;20141;-88
2021/03/30 16:48:57;;;;;;;3.80;3.47;;;26.50;10.90;;;;;;6251491;22;20438;-88
2021/03/30 16:51:26;;;;;;;3.13;2.93;;;26.60;10.90;;;;;;6251435;22;20347;-88
2021/03/30 16:53:52;;;;;;;3.30;2.80;;;26.60;10.90;;;;;;6252595;22;20357;-87
2021/03/30 16:56:19;;;;;;;3.60;3.23;;;26.60;10.50;;;;;;6252818;22;20354;-88
2021/03/30 16:58:59;;;;;;;2.97;2.50;;;26.50;10.50;;;;;;6252467;22;20836;-88
2021/03/30 17:01:25;;;;;;;3.57;3.00;;;26.40;10.70;;;;;;6257616;22;20380;-86
2021/03/30 17:04:26;;;;;;;3.70;3.30;;;26.40;10.70;;;;;;6254429;22;20813;-87
2021/03/30 17:06:54;;;;;;;5.03;3.77;;;26.30;10.50;;;;;;6257100;22;20148;-92
2021/03/30 17:16:13;;;;;;;3.53;3.23;;;26.70;10.80;;;;;;6309227;22;20768;-93
2021/03/30 17:19:15;;;;;;;3.60;3.30;;;26.90;10.70;;;;;;6284674;22;20378;-93
2021/03/30 17:21:41;;;;;;;4.40;3.43;;;27.10;10.20;;;;;;6284769;22;20375;-93
2021/03/30 17:51:39;;;;;;;5.00;4.00;;;26.20;12.40;;;;;;6314883;22;20849;-93
2021/03/30 17:57:27;;;;;;;3.70;3.20;;;25.50;13.10;;;;;;6312891;22;20340;-94
2021/03/30 18:03:14;;;;;;;3.57;2.33;;;24.90;14.20;;;;;;6312656;22;20183;-93
2021/03/30 18:09:03;;;;;;;4.33;3.00;;;24.30;15.10;;;;;;6313552;22;20469;-93
2021/03/30 18:14:51;;;;;;;5.33;2.60;;;23.90;15.60;;;;;;6315534;22;20367;-93
2021/03/30 18:20:39;;;;;;;4.50;2.93;;;23.40;16.60;;;;;;6318829;22;20386;-95
2021/03/30 18:23:06;;;;;;;3.37;2.70;;;23.20;19.30;;;;;;6286909;22;20419;-93
2021/03/30 18:25:33;;;;;;;3.47;3.17;;;22.70;19.70;;;;;;6287469;22;20183;-95
2021/03/30 18:28:18;;;;;;;3.70;3.07;;;22.90;19.80;;;;;;6286565;22;20488;-94
2021/03/30 18:30:46;;;;;;;4.30;3.70;;;22.70;19.70;;;;;;6289937;22;20870;-96
2021/03/30 18:33:12;;;;;;;4.30;2.60;;;22.60;19.60;;;;;;6291031;22;20377;-95
2021/03/30 18:39:05;;;;;;;3.23;2.80;;;22.00;20.60;;;;;;6321453;22;20349;-95
2021/03/30 18:41:33;;;;;;;3.10;2.80;;;21.40;20.30;;;;;;6277109;22;20816;-94
2021/03/30 18:44:05;;;;;;;5.07;3.33;;;21.70;20.90;;;;;;6294548;22;20414;-96
2021/03/30 18:46:31;;;;;;;5.23;3.50;;;21.40;21.00;;;;;;6283102;22;20358;-96
2021/03/30 18:48:58;;;;;;;3.45;3.00;;;21.20;21.50;;;;;;6285989;22;20823;-95
2021/03/30 18:51:46;;;;;;;6.00;4.33;;;21.10;21.30;;;;;;6288613;22;20571;-96
2021/03/30 18:54:53;;;;;;;5.00;3.30;;;20.80;21.10;;;;;;6286823;22;20656;-94
2021/03/30 18:57:25;;;;;;;4.90;4.00;;;21.00;21.80;;;;;;6288298;22;20378;-92
2021/03/30 19:06:00;;;;;;;7.57;4.37;;;20.50;23.10;;;;;;6313716;22;20676;-93
2021/03/30 19:11:49;;;;;;;6.03;4.00;;;20.30;23.30;;;;;;6317371;22;20356;-92
2021/03/30 19:18:03;;;;;;;4.67;3.80;;;19.90;23.60;;;;;;6325790;22;20390;-95
2021/03/30 19:23:55;;;;;;;5.20;3.50;;;19.70;24.30;;;;;;6326499;22;20409;-94
2021/03/30 19:29:47;;;;;;;4.50;3.40;;;19.40;24.80;;;;;;6329029;22;20358;-96
2021/03/30 19:47:45;;;;;;;6.83;4.27;;;18.70;26.20;;;;;;6310002;22;20448;-91
2021/03/30 19:50:24;;;;;;;8.63;4.20;;;18.70;26.60;;;;;;6284128;22;20387;-91
2021/03/30 19:52:52;;;;;;;6.73;4.03;;;18.50;26.70;;;;;;6286038;22;20567;-91
2021/03/30 19:55:30;;;;;;;4.60;3.73;;;18.60;26.40;;;;;;6285945;22;20371;-93
2021/03/30 19:58:01;;;;;;;4.93;4.13;;;18.40;26.60;;;;;;6286005;22;20386;-92
2021/03/30 20:00:46;;;;;;;4.60;4.03;;;18.30;26.90;;;;;;6285961;22;20382;-92
2021/03/30 20:03:12;;;;;;;6.70;4.97;;;18.20;26.80;;;;;;6283283;22;20437;-93
2021/03/30 20:05:56;;;;;;;4.97;4.47;;;17.80;26.90;;;;;;6285635;22;20374;-93
2021/03/30 20:08:22;;;;;;;4.20;3.57;;;17.90;27.00;;;;;;6284934;22;20227;-94
2021/03/30 20:10:50;;;;;;;6.97;4.50;;;17.70;27.60;;;;;;6285146;22;20370;-93
2021/03/30 20:13:17;;;;;;;3.50;3.20;;;17.50;27.70;;;;;;6284678;22;20410;-91
2021/03/30 20:16:22;;;;;;;4.57;3.77;;;17.70;27.50;;;;;;6285070;22;20403;-92
2021/03/30 20:18:48;;;;;;;3.47;3.20;;;17.50;27.80;;;;;;6288230;22;20371;-95
2021/03/30 20:21:16;;;;;;;7.60;4.10;;;17.40;27.90;;;;;;6296228;22;20366;-91
2021/03/30 20:23:42;;;;;;;5.13;3.43;;;17.30;28.10;;;;;;6296025;22;20160;-93
2021/03/30 20:29:58;;;;;;;4.53;3.53;;;17.30;28.60;;;;;;6316007;22;20394;-94
2021/03/30 20:33:17;;;;;;;4.57;3.57;;;17.10;28.50;;;;;;6291236;22;20882;-94
2021/03/30 20:35:43;;;;;;;4.40;3.67;;;16.90;28.50;;;;;;6313131;22;20372;-88
2021/03/30 20:38:08;;;;;;;3.67;3.23;;;17.10;29.00;;;;;;6285138;22;20829;-89
2021/03/30 20:40:34;;;;;;;3.20;2.87;;;16.60;28.90;;;;;;6285209;22;20174;-91
2021/03/30 20:43:01;;;;;;;3.63;3.33;;;16.40;28.80;;;;;;6286292;22;20225;-90
2021/03/30 20:45:27;;;;;;;7.37;3.17;;;16.50;28.70;;;;;;6285407;22;20378;-89
2021/03/30 20:47:55;;;;;;;3.10;2.90;;;16.70;28.70;;;;;;6286049;22;20434;-91
2021/03/30 20:50:24;;;;;;;4.03;3.03;;;16.40;28.70;;;;;;6291848;22;20381;-92
2021/03/30 20:55:31;;;;;;;4.10;3.67;;;16.30;29.00;;;;;;6285093;22;20446;-91
2021/03/30 20:57:57;;;;;;;7.07;3.90;;;16.30;29.40;;;;;;6257272;22;20877;-90
